Aérodrome :







RETROUVEZ-NOUS SUR...

 
LOGIN :

S'inscrire | Disclaimer

   EN    FR    IT 

 









Légende :    VFR   VFR Marginal   IFR   IFR Intensif   IFR Très Intensif
Visi : 
Plafond : 
>= 8 km
>= 3000ft
5 à 8 km
1000 à 3000 ft
1500m à 5 km
500 à 1000 ft
800 à 1500m
200 à 500 ft
< 800m
< 200 ft
Symboles :   Orages  Brouillard  Fortes neiges  Fortes précipitations  Vent > 20 kt







- Altitude de l'aérodrome : 83 ft


KBHB - Hancock County-Bar Harbor

DERNIER METAR :
  • 230556Z AUTO 06012G18KT 4SM -RA BR BKN008 OVC011 10/09 A3002 RMK AO2 CIG 005V009 SLP171 P0010 60045 T01000094 10128 20100 56015

METARs EXPIRÉS :
  • 230511Z AUTO 05014G22KT 5SM -RA BR OVC008 11/10 A3003 RMK AO2 CIG 005V011 P0001
  • 230456Z AUTO 06011G19KT 2 1/2SM RA BR OVC006 11/10 A3004 RMK AO2 SLP175 P0017 T01060100
  • 230356Z AUTO 05010KT 4SM RA BR OVC006 12/11 A3005 RMK AO2 RAB08 SLP180 P0008 T01170111

TAF KBHB
Valide du 23 à 06h jusqu'au 24 à 06h UTC


230523Z 2306/2406 05013G21KT 4SM -RA OVC008
FM231200 03011KT 6SM -RA OVC012
FM231500 03011KT P6SM VCSH OVC018
FM232200 01007KT P6SM OVC013
FM240500 VRB03KT 6SM -RA OVC009
FIR KZBW / Amérique du Nord



MET'MAP, la Météo Aéronautique d'un coup d'oeil ! - Copyright ORBIFLY Décembre 2007 - Disclaimer

ORBIFLY MET'MAP TEAM :

Programmation & Développement : Alexandra Zaïnal
Conception & Développement : Baudouin d'Aumeries
Co-Programmation & Développement : Marc-Olivier Méhu
Soutien technique & logistique : Manuel Goepfert

Contact : metmap@orbifly.com




SOURCES & CREDITS :

   NOAA